< < Back
Terminal Aerodrome Forecast


Current Version              Previous Versions:   1  2  3  4  5  6  7  8  9  

Terminal Aerodrome Forecast

215
FTUS42 KTAE 280532
TAFDHN
TAF
KDHN 280532Z 2806/2906 25004KT P6SM SCT030
     FM282200 28007KT P6SM VCTS BKN050CB
     FM290200 25004KT P6SM BKN250=

Latest METAR

627
SAUS70 KWBC 281300
MTRDHN
METAR KDHN 281253Z 33007KT 9SM FEW004 24/22 A3005 RMK AO2 SLP170
T02440217


USA.gov is the U.S. government's official web portal to all federal, state and local government web resources and services.